Time;durP1;ratioP1;P1;durP2;ratioP2;P2;SDS_P1;SDS_P2;PMS_P1;PMS_P2;Temp;Humidity;BMP_temperature;BMP_pressure;BME280_temperature;BME280_humidity;BME280_pressure;Samples;Min_cycle;Max_cycle;Signal;HPM_P1;HPM_P2
2022/07/01 00:01:26;;;;;;;;;;;;;;;24.46;64.81;100683.59;5059541;28;4190;-63
2022/07/01 00:03:52;;;;;;;;;;;;;;;24.46;65.01;100697.31;5053663;28;4191;-63
2022/07/01 00:06:24;;;;;;;;;;;;;;;24.45;64.88;100687.88;5058191;28;4247;-64
2022/07/01 00:08:51;;;;;;;;;;;;;;;24.46;64.80;100682.84;5053350;28;4089;-64
2022/07/01 00:11:17;;;;;;;;;;;;;;;24.45;64.59;100682.09;5050846;28;4173;-63
2022/07/01 00:13:44;;;;;;;;;;;;;;;24.45;64.75;100672.69;5056203;28;5359;-63
2022/07/01 00:16:10;;;;;;;;;;;;;;;24.47;64.91;100678.56;5056001;28;4293;-63
2022/07/01 00:18:36;;;;;;;;;;;;;;;24.45;64.98;100676.31;5053337;28;4218;-64
2022/07/01 00:21:03;;;;;;;;;;;;;;;24.46;64.76;100672.00;5053841;28;4202;-64
2022/07/01 00:23:30;;;;;;;;;;;;;;;24.48;64.75;100668.44;5055462;28;4241;-64
2022/07/01 00:25:57;;;;;;;;;;;;;;;24.46;65.26;100666.22;5056443;28;4243;-63
2022/07/01 00:28:23;;;;;;;;;;;;;;;24.44;65.15;100669.06;5055816;28;4212;-63
2022/07/01 00:30:49;;;;;;;;;;;;;;;24.48;65.14;100661.94;5056265;28;6480;-63
2022/07/01 00:33:16;;;;;;;;;;;;;;;24.45;65.32;100658.22;5055580;28;4233;-63
2022/07/01 00:35:42;;;;;;;;;;;;;;;24.48;65.21;100661.94;5055424;28;4229;-63
2022/07/01 00:38:09;;;;;;;;;;;;;;;24.46;65.05;100663.34;5057179;28;4220;-63
2022/07/01 00:40:35;;;;;;;;;;;;;;;24.46;65.05;100654.66;5058734;28;4199;-63
2022/07/01 00:43:02;;;;;;;;;;;;;;;24.45;65.05;100658.22;5054312;28;4289;-63
2022/07/01 00:45:28;;;;;;;;;;;;;;;24.46;65.22;100653.88;5057108;28;4208;-63
2022/07/01 00:47:54;;;;;;;;;;;;;;;24.46;65.27;100653.88;5055870;28;4050;-63
2022/07/01 00:50:21;;;;;;;;;;;;;;;24.45;65.17;100646.63;5054213;28;4932;-63
2022/07/01 00:52:47;;;;;;;;;;;;;;;24.45;65.29;100652.44;5056592;28;4125;-63
2022/07/01 00:55:14;;;;;;;;;;;;;;;24.45;65.30;100658.22;5053113;28;4193;-63
2022/07/01 00:57:40;;;;;;;;;;;;;;;24.43;65.45;100661.78;5051718;28;4192;-63
2022/07/01 01:00:14;;;;;;;;;;;;;;;24.46;65.58;100665.47;5056390;28;4257;-64
2022/07/01 01:02:40;;;;;;;;;;;;;;;24.46;65.40;100665.47;5052955;28;4271;-64
2022/07/01 01:05:07;;;;;;;;;;;;;;;24.48;65.48;100671.34;5051603;28;4203;-63
2022/07/01 01:07:33;;;;;;;;;;;;;;;24.46;65.55;100679.94;5053590;28;5004;-63
2022/07/01 01:10:00;;;;;;;;;;;;;;;24.46;65.42;100680.69;5055315;28;4373;-63
2022/07/01 01:12:27;;;;;;;;;;;;;;;24.46;65.71;100677.03;5052793;28;4081;-63
2022/07/01 01:14:53;;;;;;;;;;;;;;;24.44;65.58;100665.41;5050962;28;4294;-63
2022/07/01 01:17:21;;;;;;;;;;;;;;;24.44;65.53;100668.31;5053351;28;4219;-63
2022/07/01 01:19:48;;;;;;;;;;;;;;;24.45;65.77;100664.00;5049201;28;4162;-63
2022/07/01 01:22:15;;;;;;;;;;;;;;;24.45;65.79;100658.22;5053614;28;4252;-63
2022/07/01 01:24:41;;;;;;;;;;;;;;;24.45;65.55;100664.00;5053261;28;5228;-63
2022/07/01 01:27:07;;;;;;;;;;;;;;;24.44;65.86;100645.91;5050777;28;4247;-63
2022/07/01 01:29:37;;;;;;;;;;;;;;;24.46;65.78;100659.69;5049325;28;4247;-63
2022/07/01 01:32:04;;;;;;;;;;;;;;;24.45;66.00;100656.06;5047847;28;4132;-64
2022/07/01 01:34:30;;;;;;;;;;;;;;;24.45;65.99;100643.75;5050265;28;5232;-63
2022/07/01 01:36:56;;;;;;;;;;;;;;;24.44;66.14;100639.34;5053318;28;4162;-63
2022/07/01 01:39:23;;;;;;;;;;;;;;;24.42;66.02;100639.34;5053752;28;4197;-63
2022/07/01 01:41:49;;;;;;;;;;;;;;;24.42;66.26;100634.28;5052321;28;4158;-63
2022/07/01 01:44:15;;;;;;;;;;;;;;;24.41;66.14;100632.78;5051385;28;4277;-63
2022/07/01 01:46:42;;;;;;;;;;;;;;;24.40;66.16;100619.75;5054371;28;4506;-63
2022/07/01 01:49:08;;;;;;;;;;;;;;;24.40;66.16;100622.66;5051644;28;4192;-63
2022/07/01 01:51:35;;;;;;;;;;;;;;;24.38;66.17;100608.13;5051637;28;5434;-63
2022/07/01 01:54:01;;;;;;;;;;;;;;;24.38;66.54;100607.38;5054494;28;5287;-63
2022/07/01 01:56:27;;;;;;;;;;;;;;;24.36;66.50;100613.13;5055571;28;4054;-63
2022/07/01 01:58:54;;;;;;;;;;;;;;;24.36;66.43;100613.13;5046811;28;4040;-63
2022/07/01 02:01:20;;;;;;;;;;;;;;;24.36;66.41;100616.00;5053889;28;5345;-64
2022/07/01 02:03:47;;;;;;;;;;;;;;;24.36;66.63;100616.00;5054291;28;4216;-63
2022/07/01 02:06:14;;;;;;;;;;;;;;;24.36;66.70;100622.53;5055624;28;4196;-63
2022/07/01 02:08:40;;;;;;;;;;;;;;;24.35;66.74;100614.53;5050185;28;5240;-63
2022/07/01 02:11:06;;;;;;;;;;;;;;;24.36;66.82;100616.00;5052249;28;4265;-63
2022/07/01 02:13:33;;;;;;;;;;;;;;;24.37;66.83;100611.69;5056641;28;4890;-63
2022/07/01 02:15:59;;;;;;;;;;;;;;;24.35;67.14;100602.94;5054211;28;4206;-63
2022/07/01 02:18:26;;;;;;;;;;;;;;;24.34;66.82;100610.16;5052771;28;4146;-63
2022/07/01 02:20:52;;;;;;;;;;;;;;;24.33;66.87;100614.50;5051952;28;4250;-63
2022/07/01 02:23:18;;;;;;;;;;;;;;;24.30;67.02;100613.69;5055769;28;4589;-64
2022/07/01 02:25:46;;;;;;;;;;;;;;;24.31;66.82;100618.06;5055903;28;4252;-63
2022/07/01 02:28:12;;;;;;;;;;;;;;;24.28;66.95;100616.56;5056050;28;4178;-63
2022/07/01 02:30:38;;;;;;;;;;;;;;;24.31;67.03;100626.00;5050461;28;4192;-63
2022/07/01 02:33:08;;;;;;;;;;;;;;;24.29;66.79;100628.84;5053044;28;4206;-63
2022/07/01 02:35:34;;;;;;;;;;;;;;;24.28;67.08;100633.91;5055752;28;4319;-63
2022/07/01 02:38:01;;;;;;;;;;;;;;;24.28;66.83;100636.03;5053032;28;4242;-63
2022/07/01 02:40:27;;;;;;;;;;;;;;;24.27;66.68;100649.06;5051812;28;4044;-63
2022/07/01 02:42:54;;;;;;;;;;;;;;;24.26;66.68;100648.31;5055018;28;4304;-63
2022/07/01 02:45:20;;;;;;;;;;;;;;;24.23;66.90;100650.41;5051444;28;5147;-63
2022/07/01 02:47:46;;;;;;;;;;;;;;;24.23;67.07;100652.56;5057034;28;5223;-63
2022/07/01 02:50:13;;;;;;;;;;;;;;;24.22;66.90;100651.81;5047819;28;4079;-63
2022/07/01 02:52:46;;;;;;;;;;;;;;;24.22;67.08;100648.94;5057409;28;4150;-63
2022/07/01 02:55:13;;;;;;;;;;;;;;;24.20;67.21;100645.25;5051728;28;4203;-63
2022/07/01 02:57:39;;;;;;;;;;;;;;;24.20;67.22;100645.97;5040970;28;4156;-63
2022/07/01 03:00:07;;;;;;;;;;;;;;;24.20;67.24;100651.03;5040300;28;4278;-63
2022/07/01 03:02:34;;;;;;;;;;;;;;;24.17;67.20;100650.25;5042861;28;4175;-63
2022/07/01 03:05:00;;;;;;;;;;;;;;;24.17;67.41;100646.63;5039825;28;6363;-63
2022/07/01 03:07:27;;;;;;;;;;;;;;;24.18;67.50;100643.03;5041813;28;5335;-63
2022/07/01 03:09:53;;;;;;;;;;;;;;;24.18;67.57;100654.59;5049376;28;4137;-63
2022/07/01 03:12:27;;;;;;;;;;;;;;;24.15;67.75;100650.19;5051275;28;5421;-64
2022/07/01 03:14:57;;;;;;;;;;;;;;;24.15;67.93;100653.09;5056502;28;4110;-63
2022/07/01 03:17:24;;;;;;;;;;;;;;;24.15;67.78;100655.97;5047139;28;4205;-63
2022/07/01 03:19:51;;;;;;;;;;;;;;;24.15;67.93;100647.28;5047706;28;4183;-63
2022/07/01 03:22:17;;;;;;;;;;;;;;;24.15;68.03;100641.50;5052934;28;5252;-64
2022/07/01 03:24:44;;;;;;;;;;;;;;;24.15;67.96;100650.19;5054165;28;4239;-63
2022/07/01 03:27:10;;;;;;;;;;;;;;;24.14;68.20;100642.91;5052811;28;5294;-63
2022/07/01 03:29:37;;;;;;;;;;;;;;;24.16;68.06;100645.88;5052508;28;4306;-63
2022/07/01 03:32:03;;;;;;;;;;;;;;;24.18;67.95;100648.81;5051365;28;4238;-64
2022/07/01 03:34:29;;;;;;;;;;;;;;;24.15;68.36;100644.41;5052968;28;5477;-63
2022/07/01 03:36:56;;;;;;;;;;;;;;;24.17;68.38;100656.03;5052436;28;4273;-63
2022/07/01 03:39:22;;;;;;;;;;;;;;;24.18;68.38;100645.94;5055631;28;4281;-63
2022/07/01 03:41:48;;;;;;;;;;;;;;;24.17;68.26;100658.94;5053195;28;4075;-63
2022/07/01 03:44:15;;;;;;;;;;;;;;;24.19;68.40;100649.53;5054237;28;4181;-63
2022/07/01 03:46:41;;;;;;;;;;;;;;;24.20;68.26;100654.66;5047250;28;4187;-63
2022/07/01 03:49:08;;;;;;;;;;;;;;;24.20;68.45;100640.19;5057361;28;5280;-63
2022/07/01 03:51:34;;;;;;;;;;;;;;;24.21;68.39;100653.25;5056899;28;4199;-63
2022/07/01 03:56:46;;;;;;;;;;;;;;;24.22;68.25;100639.53;5053337;28;4229;-63
2022/07/01 03:59:12;;;;;;;;;;;;;;;24.23;68.42;100643.88;5053547;28;4207;-63
2022/07/01 04:01:38;;;;;;;;;;;;;;;24.22;68.56;100630.84;5053595;28;4211;-63
2022/07/01 04:04:05;;;;;;;;;;;;;;;24.22;68.69;100637.34;5056387;28;4156;-63
2022/07/01 04:06:31;;;;;;;;;;;;;;;24.22;68.50;100631.56;5055691;28;5241;-63
2022/07/01 04:08:58;;;;;;;;;;;;;;;24.25;68.67;100627.31;5054337;28;5294;-63
2022/07/01 04:11:24;;;;;;;;;;;;;;;24.24;68.61;100634.53;5053022;28;5446;-63
2022/07/01 04:13:51;;;;;;;;;;;;;;;24.23;68.74;100633.06;5053002;28;4127;-63
2022/07/01 04:16:17;;;;;;;;;;;;;;;24.23;68.96;100633.06;5052515;28;5179;-63
2022/07/01 04:18:43;;;;;;;;;;;;;;;24.25;69.11;100630.19;5057472;28;5300;-63
2022/07/01 04:24:01;;;;;;;;;;;;;;;24.24;69.48;100625.84;5053707;28;5425;-63
2022/07/01 04:26:27;;;;;;;;;;;;;;;24.23;69.29;100633.06;5056740;28;4355;-63
2022/07/01 04:29:03;;;;;;;;;;;;;;;24.14;70.87;100642.91;5055134;28;4255;-63
2022/07/01 04:31:30;;;;;;;;;;;;;;;24.11;71.53;100637.78;5057717;28;4216;-62
2022/07/01 04:33:56;;;;;;;;;;;;;;;24.16;71.34;100640.09;5055334;28;5293;-62
2022/07/01 04:36:22;;;;;;;;;;;;;;;24.16;72.02;100637.19;5056350;28;4204;-62
2022/07/01 04:38:49;;;;;;;;;;;;;;;24.19;71.85;100644.53;5055668;28;5254;-63
2022/07/01 04:44:01;;;;;;;;;;;;;;;24.28;71.98;100662.84;5057660;28;4374;-63
2022/07/01 04:46:27;;;;;;;;;;;;;;;24.25;72.11;100659.13;5054264;28;5393;-63
2022/07/01 04:48:54;;;;;;;;;;;;;;;24.34;72.37;100665.16;5057748;28;5355;-63
2022/07/01 04:51:20;;;;;;;;;;;;;;;24.34;72.62;100665.16;5052170;28;5224;-63
2022/07/01 04:53:47;;;;;;;;;;;;;;;24.33;73.09;100669.47;5055392;28;4223;-62
2022/07/01 04:56:13;;;;;;;;;;;;;;;24.29;73.28;100680.94;5053960;28;4247;-62
2022/07/01 04:58:39;;;;;;;;;;;;;;;24.33;72.90;100698.41;5051063;28;4234;-63
2022/07/01 05:01:06;;;;;;;;;;;;;;;24.34;72.84;100714.34;5051454;28;5267;-62
2022/07/01 05:03:32;;;;;;;;;;;;;;;24.38;72.70;100717.34;5049061;28;4272;-63
2022/07/01 05:05:59;;;;;;;;;;;;;;;24.39;72.19;100713.03;5051677;28;6477;-63
2022/07/01 05:08:25;;;;;;;;;;;;;;;24.31;72.97;100718.63;5045809;28;4257;-70
2022/07/01 05:10:52;;;;;;;;;;;;;;;24.22;73.51;100723.44;5050248;28;4248;-68
2022/07/01 05:13:18;;;;;;;;;;;;;;;24.10;75.22;100735.41;5052948;28;4232;-64
2022/07/01 05:15:44;;;;;;;;;;;;;;;23.60;77.05;100735.31;5051918;28;4294;-64
2022/07/01 05:23:41;;;;;;;;;;;;;;;23.83;75.87;100730.97;5048087;28;4327;-64
2022/07/01 05:26:08;;;;;;;;;;;;;;;24.06;75.02;100731.66;5051137;28;5484;-64
2022/07/01 05:28:34;;;;;;;;;;;;;;;24.17;74.49;100739.94;5051055;28;5508;-64
2022/07/01 05:31:00;;;;;;;;;;;;;;;24.27;73.87;100742.38;5049940;28;4245;-64
2022/07/01 05:33:27;;;;;;;;;;;;;;;24.30;73.54;100751.84;5055041;28;4085;-64
2022/07/01 05:35:53;;;;;;;;;;;;;;;24.30;73.79;100757.63;5056961;28;4310;-65
2022/07/01 05:38:20;;;;;;;;;;;;;;;24.34;73.46;100749.81;5055779;28;4320;-64
2022/07/01 05:40:46;;;;;;;;;;;;;;;24.32;73.38;100754.81;5056449;28;5278;-64
2022/07/01 05:43:12;;;;;;;;;;;;;;;24.37;73.22;100750.59;5055522;28;4185;-64
2022/07/01 05:45:39;;;;;;;;;;;;;;;24.42;72.80;100763.78;5052376;28;4221;-64
2022/07/01 05:48:06;;;;;;;;;;;;;;;24.32;73.65;100758.44;5054494;28;5412;-64
2022/07/01 05:50:32;;;;;;;;;;;;;;;24.35;73.60;100780.22;5049629;28;5482;-64
2022/07/01 05:52:59;;;;;;;;;;;;;;;24.12;74.39;100784.63;5048427;28;4336;-67
2022/07/01 05:55:25;;;;;;;;;;;;;;;24.25;74.03;100780.66;5050453;28;4341;-69
2022/07/01 05:57:51;;;;;;;;;;;;;;;24.33;73.48;100788.13;5049881;28;4395;-65
2022/07/01 06:00:18;;;;;;;;;;;;;;;24.34;73.51;100789.59;5050142;28;4314;-60
2022/07/01 06:06:25;;;;;;;;;;;;;;;24.39;72.97;100777.44;5045005;28;4393;-67
2022/07/01 06:08:51;;;;;;;;;;;;;;;24.38;72.90;100775.25;5052903;28;4230;-67
2022/07/01 06:11:17;;;;;;;;;;;;;;;24.39;72.62;100782.50;5055053;28;5545;-67
2022/07/01 06:13:44;;;;;;;;;;;;;;;24.39;72.37;100780.31;5048696;28;4246;-67
2022/07/01 06:16:10;;;;;;;;;;;;;;;24.39;72.37;100783.22;5053912;28;4241;-68
2022/07/01 06:18:37;;;;;;;;;;;;;;;24.39;71.93;100788.28;5056012;28;5070;-68
2022/07/01 06:21:03;;;;;;;;;;;;;;;24.39;71.61;100783.22;5058178;28;5478;-68
2022/07/01 06:23:29;;;;;;;;;;;;;;;24.39;71.63;100776.69;5055975;28;4190;-68
2022/07/01 06:25:56;;;;;;;;;;;;;;;24.40;71.17;100772.41;5056632;28;4136;-68
2022/07/01 06:28:22;;;;;;;;;;;;;;;24.41;70.72;100773.88;5055514;28;4263;-67
2022/07/01 06:30:49;;;;;;;;;;;;;;;24.41;70.49;100779.66;5054533;28;4039;-68
2022/07/01 06:33:15;;;;;;;;;;;;;;;24.41;70.44;100782.56;5055755;28;4274;-68
2022/07/01 06:35:42;;;;;;;;;;;;;;;24.42;70.35;100781.16;5056641;28;4186;-68
2022/07/01 06:38:08;;;;;;;;;;;;;;;24.42;70.17;100784.03;5052870;28;4533;-68
2022/07/01 06:40:34;;;;;;;;;;;;;;;24.42;70.09;100786.94;5054691;28;4352;-73
2022/07/01 06:43:01;;;;;;;;;;;;;;;24.42;69.58;100787.66;5056453;28;4214;-68
2022/07/01 06:45:27;;;;;;;;;;;;;;;24.42;69.51;100786.94;5053385;28;4198;-68
2022/07/01 06:47:53;;;;;;;;;;;;;;;24.41;69.44;100785.44;5052333;28;4253;-68
2022/07/01 06:50:20;;;;;;;;;;;;;;;24.41;69.47;100774.59;5050011;28;4243;-67
2022/07/01 06:52:46;;;;;;;;;;;;;;;24.42;69.34;100776.09;5053970;28;4237;-68
2022/07/01 06:55:13;;;;;;;;;;;;;;;24.43;68.96;100765.25;5051110;28;4229;-68
2022/07/01 06:57:39;;;;;;;;;;;;;;;24.42;69.08;100763.78;5053851;28;4230;-67
2022/07/01 07:00:06;;;;;;;;;;;;;;;24.42;68.84;100764.50;5051118;28;4184;-68
2022/07/01 07:02:32;;;;;;;;;;;;;;;24.42;68.86;100758.00;5053568;28;4229;-68
2022/07/01 07:04:58;;;;;;;;;;;;;;;24.43;68.72;100765.25;5053006;28;4168;-68
2022/07/01 07:07:27;;;;;;;;;;;;;;;24.43;68.38;100765.25;5050016;28;5408;-69
2022/07/01 07:09:55;;;;;;;;;;;;;;;24.42;68.49;100764.50;5053065;28;4245;-69
2022/07/01 07:12:22;;;;;;;;;;;;;;;24.43;68.26;100759.47;5050136;28;4314;-69
2022/07/01 07:14:49;;;;;;;;;;;;;;;24.43;68.27;100765.25;5051875;28;4219;-69
2022/07/01 07:17:15;;;;;;;;;;;;;;;24.43;68.01;100765.25;5053681;28;4194;-69
2022/07/01 07:19:42;;;;;;;;;;;;;;;24.43;68.19;100759.47;5052991;28;4178;-69
2022/07/01 07:22:08;;;;;;;;;;;;;;;24.44;68.07;100763.81;5056095;28;4004;-69
2022/07/01 07:24:34;;;;;;;;;;;;;;;24.43;68.00;100759.47;5056560;28;4174;-69
2022/07/01 07:27:01;;;;;;;;;;;;;;;24.43;67.87;100759.47;5057402;28;5269;-69
2022/07/01 07:29:29;;;;;;;;;;;;;;;24.44;67.56;100760.91;5058005;28;5295;-69
2022/07/01 07:31:55;;;;;;;;;;;;;;;24.43;67.70;100768.88;5055275;28;4245;-69
2022/07/01 07:34:22;;;;;;;;;;;;;;;24.44;67.65;100766.72;5058295;28;4621;-69
2022/07/01 07:36:48;;;;;;;;;;;;;;;24.44;67.61;100772.50;5057448;28;5289;-68
2022/07/01 07:39:14;;;;;;;;;;;;;;;24.43;67.58;100791.28;5055326;28;4246;-69
2022/07/01 07:41:41;;;;;;;;;;;;;;;24.44;67.54;100790.63;5055022;28;4602;-68
2022/07/01 07:44:07;;;;;;;;;;;;;;;24.43;67.60;100792.03;5056719;28;5652;-70
2022/07/01 07:46:33;;;;;;;;;;;;;;;24.44;67.32;100790.63;5051203;28;4388;-65
2022/07/01 07:49:00;;;;;;;;;;;;;;;24.54;67.49;100781.50;5046026;28;5376;-70
2022/07/01 07:51:26;;;;;;;;;;;;;;;24.67;66.73;100789.13;5049814;28;4365;-71
2022/07/01 07:53:53;;;;;;;;;;;;;;;24.70;66.10;100795.69;5058510;28;4259;-73
2022/07/01 07:56:20;;;;;;;;;;;;;;;24.73;66.47;100802.28;5060182;28;4193;-72
2022/07/01 07:58:47;;;;;;;;;;;;;;;24.76;66.39;100792.97;5057464;28;4160;-75
2022/07/01 08:01:13;;;;;;;;;;;;;;;24.80;65.96;100789.44;5062034;28;5263;-72
2022/07/01 08:03:39;;;;;;;;;;;;;;;24.81;65.05;100794.56;5059124;28;5400;-72
2022/07/01 08:06:06;;;;;;;;;;;;;;;24.84;65.34;100783.75;5059995;28;4369;-75
2022/07/01 08:08:32;;;;;;;;;;;;;;;24.94;65.54;100789.81;5064512;28;4181;-70
2022/07/01 08:10:59;;;;;;;;;;;;;;;24.93;64.85;100779.66;5063383;28;5509;-68
2022/07/01 08:13:25;;;;;;;;;;;;;;;24.97;64.50;100779.00;5063527;28;4233;-68
2022/07/01 08:15:51;;;;;;;;;;;;;;;24.97;64.74;100785.56;5064674;28;4224;-68
2022/07/01 08:18:18;;;;;;;;;;;;;;;25.00;64.48;100772.59;5059154;28;5162;-68
2022/07/01 08:20:45;;;;;;;;;;;;;;;25.08;64.43;100772.06;5054423;28;4243;-64
2022/07/01 08:23:11;;;;;;;;;;;;;;;25.03;64.71;100765.41;5057368;28;5281;-70
2022/07/01 08:25:38;;;;;;;;;;;;;;;25.03;64.82;100773.38;5063292;28;4205;-68
2022/07/01 08:28:04;;;;;;;;;;;;;;;25.04;64.83;100771.97;5061139;28;4263;-66
2022/07/01 08:30:31;;;;;;;;;;;;;;;25.03;65.34;100777.00;5057781;28;4241;-62
2022/07/01 08:32:57;;;;;;;;;;;;;;;25.02;65.46;100775.53;5055150;28;6591;-62
2022/07/01 08:35:23;;;;;;;;;;;;;;;25.11;65.25;100781.56;5059306;28;4364;-70
2022/07/01 08:37:50;;;;;;;;;;;;;;;25.09;65.08;100785.88;5057292;28;4122;-74
2022/07/01 08:40:16;;;;;;;;;;;;;;;25.23;64.42;100790.56;5050323;28;5799;-75
2022/07/01 08:42:43;;;;;;;;;;;;;;;25.30;64.24;100803.78;5053620;28;4281;-71
2022/07/01 08:45:09;;;;;;;;;;;;;;;25.33;64.08;100802.41;5056194;28;4176;-69
2022/07/01 08:47:48;;;;;;;;;;;;;;;25.36;63.95;100815.56;5057842;28;4297;-69
2022/07/01 08:50:14;;;;;;;;;;;;;;;25.36;63.87;100824.25;5059002;28;4213;-74
2022/07/01 08:52:48;;;;;;;;;;;;;;;25.40;63.66;100832.28;5060480;28;5379;-72
2022/07/01 08:55:14;;;;;;;;;;;;;;;25.44;63.74;100847.63;5058577;28;5324;-73
2022/07/01 08:57:40;;;;;;;;;;;;;;;25.57;62.98;100865.34;5058731;28;4205;-73
2022/07/01 09:00:07;;;;;;;;;;;;;;;25.47;63.39;100878.16;5056444;28;4190;-72
2022/07/01 09:02:49;;;;;;;;;;;;;;;25.39;63.88;100875.03;5057857;28;4325;-77
2022/07/01 09:05:15;;;;;;;;;;;;;;;25.59;63.52;100894.38;5058653;28;4165;-75
2022/07/01 09:07:41;;;;;;;;;;;;;;;25.69;62.96;100906.97;5055809;28;5255;-71
2022/07/01 09:10:20;;;;;;;;;;;;;;;25.69;63.07;100897.53;5057286;28;5423;-65
2022/07/01 09:12:47;;;;;;;;;;;;;;;25.64;63.17;100902.50;5054213;28;4148;-67
2022/07/01 09:15:31;;;;;;;;;;;;;;;25.67;62.89;100923.56;5054077;28;4230;-66
2022/07/01 09:18:10;;;;;;;;;;;;;;;25.77;62.38;100929.66;5053432;28;4068;-75
2022/07/01 09:20:38;;;;;;;;;;;;;;;25.66;62.99;100930.81;5053736;28;4145;-72
2022/07/01 09:23:07;;;;;;;;;;;;;;;24.73;64.07;100939.09;5059130;28;6268;-74
2022/07/01 09:25:43;;;;;;;;;;;;;;;24.29;64.23;100933.41;5051851;28;4205;-69
2022/07/01 09:28:18;;;;;;;;;;;;;;;24.71;63.42;100932.53;5055540;28;4374;-67
2022/07/01 09:31:03;;;;;;;;;;;;;;;24.24;64.57;100935.44;5055562;28;4485;-70
2022/07/01 09:33:29;;;;;;;;;;;;;;;23.23;67.03;100945.03;5055185;28;5262;-69
2022/07/01 09:35:56;;;;;;;;;;;;;;;23.93;65.26;100935.88;5054530;28;4107;-72
2022/07/01 09:38:23;;;;;;;;;;;;;;;23.94;65.36;100946.03;5057733;28;4236;-72
2022/07/01 09:41:02;;;;;;;;;;;;;;;23.86;64.94;100954.44;5054492;28;4186;-67
2022/07/01 09:43:32;;;;;;;;;;;;;;;23.68;65.46;100971.88;5053256;28;5322;-67
2022/07/01 09:46:10;;;;;;;;;;;;;;;23.73;65.45;100977.13;5054083;28;4175;-69
2022/07/01 09:48:37;;;;;;;;;;;;;;;24.25;64.00;100970.91;5055544;28;4256;-71
2022/07/01 09:51:04;;;;;;;;;;;;;;;24.35;63.53;100950.97;5047111;28;4062;-70
2022/07/01 09:53:34;;;;;;;;;;;;;;;24.24;63.15;100946.28;5045300;28;4152;-71
2022/07/01 09:56:00;;;;;;;;;;;;;;;24.21;63.58;100950.50;5043903;28;5322;-67
2022/07/01 09:58:27;;;;;;;;;;;;;;;24.34;62.93;100986.38;5056432;28;5336;-70
2022/07/01 10:00:53;;;;;;;;;;;;;;;24.49;62.39;101013.63;5052672;28;5418;-69
2022/07/01 10:03:20;;;;;;;;;;;;;;;24.64;62.28;101010.50;5054602;28;4246;-69
2022/07/01 10:05:50;;;;;;;;;;;;;;;24.56;62.12;100981.31;5051181;28;4231;-67
2022/07/01 10:08:25;;;;;;;;;;;;;;;24.34;62.87;100963.22;5056803;28;4170;-72
2022/07/01 10:11:12;;;;;;;;;;;;;;;24.29;62.93;100976.09;5054059;28;5259;-73
2022/07/01 10:13:41;;;;;;;;;;;;;;;24.45;62.26;100993.97;5034599;28;5223;-73
2022/07/01 10:16:07;;;;;;;;;;;;;;;24.51;62.10;101013.69;5034608;28;4175;-69
2022/07/01 10:18:33;;;;;;;;;;;;;;;24.63;61.68;101034.38;5063027;28;5559;-70
2022/07/01 10:21:01;;;;;;;;;;;;;;;24.37;61.92;101034.22;5050422;28;4190;-67
2022/07/01 10:23:28;;;;;;;;;;;;;;;24.63;61.92;101025.69;5050617;28;4228;-63
2022/07/01 10:26:01;;;;;;;;;;;;;;;24.82;61.56;101024.09;5030161;28;4812;-62
2022/07/01 10:28:28;;;;;;;;;;;;;;;24.95;60.98;101031.72;5033211;28;4197;-62
2022/07/01 10:31:02;;;;;;;;;;;;;;;24.99;61.14;101051.38;5032767;28;5230;-66
2022/07/01 10:33:47;;;;;;;;;;;;;;;25.12;60.71;101069.88;5032544;28;5707;-65
2022/07/01 10:36:15;;;;;;;;;;;;;;;25.23;60.43;101042.72;5035541;28;4438;-69
2022/07/01 10:39:00;;;;;;;;;;;;;;;25.21;60.33;101036.84;5025722;28;4262;-69
2022/07/01 10:41:27;;;;;;;;;;;;;;;24.95;61.13;101054.91;5029164;28;4253;-65
2022/07/01 10:43:53;;;;;;;;;;;;;;;24.85;61.61;101066.16;5023362;28;4254;-66
2022/07/01 10:46:44;;;;;;;;;;;;;;;24.81;61.90;101071.84;5030880;28;4311;-66
2022/07/01 10:49:15;;;;;;;;;;;;;;;24.78;62.25;101093.47;5033630;28;4185;-66
2022/07/01 10:51:48;;;;;;;;;;;;;;;24.76;62.23;101110.75;5032421;28;5292;-67
2022/07/01 10:54:33;;;;;;;;;;;;;;;24.74;62.43;101114.34;5036850;28;4217;-66
2022/07/01 10:57:15;;;;;;;;;;;;;;;24.72;62.44;101111.38;5055739;28;4120;-63
2022/07/01 10:59:41;;;;;;;;;;;;;;;24.73;62.46;101097.66;5040707;28;4042;-63
2022/07/01 11:02:11;;;;;;;;;;;;;;;24.72;62.62;101096.19;5037736;28;5160;-63
2022/07/01 11:04:37;;;;;;;;;;;;;;;24.72;62.68;101084.59;5041136;28;4167;-62
2022/07/01 11:07:04;;;;;;;;;;;;;;;24.76;62.99;101073.88;5036928;28;5331;-68
2022/07/01 11:09:31;;;;;;;;;;;;;;;24.90;62.03;101056.19;5041014;28;5340;-68
2022/07/01 11:11:57;;;;;;;;;;;;;;;24.93;61.78;101068.59;5040504;28;4091;-67
2022/07/01 11:14:23;;;;;;;;;;;;;;;24.96;61.60;101062.16;5039908;28;4172;-68
2022/07/01 11:16:50;;;;;;;;;;;;;;;25.05;61.68;101057.38;5039124;28;4293;-68
2022/07/01 11:19:19;;;;;;;;;;;;;;;25.05;61.72;101063.88;5041389;28;5535;-67
2022/07/01 11:21:49;;;;;;;;;;;;;;;25.09;62.04;101060.38;5038645;28;4273;-66
2022/07/01 11:24:18;;;;;;;;;;;;;;;25.15;61.68;101062.72;5039516;28;4272;-67
2022/07/01 11:26:45;;;;;;;;;;;;;;;25.13;61.49;101071.34;5037686;28;4189;-65
2022/07/01 11:29:12;;;;;;;;;;;;;;;25.12;61.45;101061.19;5040793;28;4252;-65
2022/07/01 11:31:38;;;;;;;;;;;;;;;25.14;61.54;101076.47;5032792;28;4238;-73
2022/07/01 11:34:04;;;;;;;;;;;;;;;25.17;61.64;101045.38;5039571;28;4269;-64
2022/07/01 11:39:23;;;;;;;;;;;;;;;25.15;61.74;101025.03;5037509;28;4005;-64
2022/07/01 11:41:56;;;;;;;;;;;;;;;25.17;61.58;101039.59;5036321;28;4228;-63
2022/07/01 11:44:33;;;;;;;;;;;;;;;25.18;61.06;101052.69;5042040;28;4289;-62
2022/07/01 11:47:20;;;;;;;;;;;;;;;25.13;61.22;101057.63;5038012;28;4224;-61
2022/07/01 11:49:46;;;;;;;;;;;;;;;25.18;61.12;101050.53;5047553;28;5238;-64
2022/07/01 11:52:13;;;;;;;;;;;;;;;25.16;61.00;101043.94;5044934;28;4293;-63
2022/07/01 11:54:40;;;;;;;;;;;;;;;25.20;61.03;101061.47;5037013;28;5286;-63
2022/07/01 11:57:09;;;;;;;;;;;;;;;25.22;61.09;101058.59;5038583;28;4257;-67
2022/07/01 11:59:38;;;;;;;;;;;;;;;25.18;60.88;101052.69;5036933;28;4153;-66
2022/07/01 12:02:05;;;;;;;;;;;;;;;25.14;61.74;101061.25;5038983;28;4368;-62
2022/07/01 12:04:31;;;;;;;;;;;;;;;25.10;61.61;101053.16;5037395;28;4203;-64
2022/07/01 12:06:58;;;;;;;;;;;;;;;25.10;61.43;101053.16;5033528;28;4328;-67
2022/07/01 12:09:25;;;;;;;;;;;;;;;25.23;60.91;101036.91;5037728;28;5599;-67
2022/07/01 12:11:54;;;;;;;;;;;;;;;25.21;60.87;101028.16;5035080;28;4249;-77
2022/07/01 12:14:21;;;;;;;;;;;;;;;25.22;60.96;101018.03;5031949;28;5503;-68
2022/07/01 12:16:47;;;;;;;;;;;;;;;25.31;60.95;101007.41;5032369;28;4083;-69
2022/07/01 12:19:14;;;;;;;;;;;;;;;25.34;60.79;101000.28;5037994;28;4786;-68
2022/07/01 12:21:47;;;;;;;;;;;;;;;25.35;61.36;101008.25;5037530;28;4483;-64
2022/07/01 12:24:13;;;;;;;;;;;;;;;24.07;62.17;101002.88;5027453;28;4070;-73
2022/07/01 12:26:47;;;;;;;;;;;;;;;24.36;62.38;100987.19;5035383;28;4200;-66
2022/07/01 12:29:14;;;;;;;;;;;;;;;24.54;61.53;100989.94;5034506;28;4158;-64
2022/07/01 12:31:41;;;;;;;;;;;;;;;24.54;61.67;100978.34;5036987;28;4267;-65
2022/07/01 12:34:08;;;;;;;;;;;;;;;24.52;61.42;100963.81;5029438;28;4542;-66
2022/07/01 12:36:34;;;;;;;;;;;;;;;24.58;60.95;100984.28;5031835;28;5510;-67
2022/07/01 12:39:04;;;;;;;;;;;;;;;24.51;61.06;100985.50;5037468;28;4277;-63
2022/07/01 12:41:34;;;;;;;;;;;;;;;24.58;61.45;101001.66;5034758;28;4238;-62
2022/07/01 12:44:23;;;;;;;;;;;;;;;24.49;61.62;101020.19;5030860;28;4170;-61
2022/07/01 12:46:49;;;;;;;;;;;;;;;24.51;61.58;101028.94;5032717;28;5238;-61
2022/07/01 12:49:21;;;;;;;;;;;;;;;24.61;61.33;101031.41;5034898;28;4060;-68
2022/07/01 12:51:48;;;;;;;;;;;;;;;24.64;61.30;101047.41;5044065;28;4110;-64
2022/07/01 12:54:30;;;;;;;;;;;;;;;24.69;61.38;101054.06;5040648;28;4323;-67
2022/07/01 12:56:57;;;;;;;;;;;;;;;24.68;61.20;101064.94;5035369;28;5328;-66
2022/07/01 12:59:23;;;;;;;;;;;;;;;24.64;61.14;101064.78;5035772;28;4188;-67
2022/07/01 13:01:51;;;;;;;;;;;;;;;24.72;61.32;101076.63;5036106;28;4158;-66
2022/07/01 13:04:24;;;;;;;;;;;;;;;24.60;61.44;101082.03;5033030;28;6778;-67
2022/07/01 13:06:50;;;;;;;;;;;;;;;24.60;61.77;101079.88;5045354;28;4425;-66
2022/07/01 13:09:17;;;;;;;;;;;;;;;24.35;61.89;101107.25;5048055;28;5251;-67
2022/07/01 13:11:43;;;;;;;;;;;;;;;24.49;61.34;101114.94;5031944;28;4259;-68